METAR Data
IDs: Format: Raw Decoded Include TAF

Data at: 0822 UTC 20 Sep 2018

PAPO 200818Z AUTO 08006KT 2SM BR CLR 06/04 A3009 RMK AO2
PAPO 200806Z AUTO 09005KT 6SM BR CLR 07/04 A3009 RMK AO2
PAPO 200756Z AUTO 09005KT 2SM BR CLR 07/05 A3009 RMK AO2 VIS 1 1/2V5 SLP187 T00670050
PAPO 200656Z AUTO 10SM CLR 07/04 A3009 RMK AO2 SLP188 T00670044
PAPO 200556Z AUTO 03005KT 10SM CLR 08/04 A3009 RMK AO2 SLP188 T00830044 10106 20083 56002
PAPO 200456Z AUTO 03005KT 10SM BKN042 08/04 A3009 RMK AO2 SLP189 T00830039
PAPO 200356Z AUTO 06003KT 10SM SCT022 09/05 A3009 RMK AO2 SLP189 T00890050
PAPO 200322Z AUTO 04004KT 10SM BKN020 BKN047 09/05 A3010 RMK AO2
PAPO 200256Z AUTO 00000KT 10SM CLR 11/05 A3009 RMK AO2 SLP190 T01060050 55001
PAPO 200156Z AUTO 00000KT 10SM FEW039 11/05 A3009 RMK AO2 SLP190 T01060050
PAPO 200056Z AUTO 12005KT 10SM SCT019 OVC039 09/05 A3009 RMK AO2 SLP191 T00940050
PAPO 192356Z AUTO 11008KT 10SM OVC039 09/04 A3010 RMK AO2 SLP191 6//// T00940044 10094 20067 58003
PAPO 192323Z AUTO 11010KT 10SM SCT019 OVC037 09/04 A3010 RMK AO2
PAPO 192256Z AUTO 11010KT 10SM OVC019 09/05 A3010 RMK AO2 SLP193 P0001 T00890050
PAPO 192249Z AUTO 11009KT 10SM BKN019 OVC042 09/04 A3010 RMK AO2 P0001
PAPO 192156Z AUTO 11009KT 10SM SCT032 09/05 A3010 RMK AO2 SLP193 T00890050
PAPO 192056Z AUTO 11010KT 10SM BKN036 08/05 A3011 RMK AO2 SLP194 6//// T00830050 57000
PAPO 191956Z AUTO 11011KT 10SM BKN041 08/06 A3011 RMK AO2 SLP194 T00830056
PAPO 191856Z AUTO 08010KT 8SM BKN009 07/05 A3011 RMK AO2 SLP194 T00670050 PNO $
PAPO 191827Z AUTO 11010KT 10SM SCT009 08/06 A3011 RMK AO2
PAPO 191756Z AUTO 12010KT 10SM OVC009 08/06 A3010 RMK AO2 SLP193 60001 T00780061 10078 20061 53002
PAPO 191711Z AUTO 10011KT 10SM BKN009 OVC049 07/06 A3010 RMK AO2
PAPO 191656Z AUTO 10009KT 10SM FEW009 OVC049 07/05 A3010 RMK AO2 SLP192 T00670050
PAPO 191623Z AUTO 12012KT 10SM SCT008 07/06 A3010 RMK AO2
PAPO 191553Z AUTO 12012KT 10SM BKN008 BKN048 08/06 A3010 RMK AO2
PAPO 191456Z AUTO 11013KT 10SM FEW008 BKN032 07/06 A3010 RMK AO2 SLP191 60001 T00720061 55000
PAPO 191449Z AUTO 11012KT 10SM SCT006 SCT010 BKN030 07/06 A3010 RMK AO2
PAPO 191440Z AUTO 10009KT 10SM SCT010 SCT030 SCT050 06/06 A3010 RMK AO2
PAPO 191424Z AUTO 09010KT 10SM BKN010 OVC050 06/06 A3009 RMK AO2
PAPO 191356Z AUTO 09010KT 8SM FEW010 BKN041 BKN055 06/05 A3009 RMK AO2 RAE06 SLP190 P0000 T00610050
PAPO 191331Z AUTO 09010KT 10SM FEW019 OVC039 06/06 A3009 RMK AO2 RAE06 P0000
PAPO 191256Z AUTO 10015KT 10SM -RA FEW010 BKN016 OVC024 07/06 A3009 RMK AO2 RAE37B56 SLP190 P0001 T00670056
PAPO 191245Z AUTO 09012KT 10SM FEW010 OVC014 06/06 A3009 RMK AO2 RAE37 P0001
PAPO 191218Z AUTO 09010KT 4SM -RA BR FEW009 BKN016 OVC032 06/06 A3010 RMK AO2 P0000
PAPO 191207Z AUTO 08011KT 2SM -RA BR FEW009 BKN016 OVC026 07/06 A3010 RMK AO2 P0000
PAPO 191156Z AUTO 09011KT 4SM -RA BR SCT009 BKN016 OVC027 07/06 A3010 RMK AO2 RAB51 SLP191 P0000 60000 T00670061 10083 20067 53001
PAPO 191118Z AUTO 12012KT 10SM SCT009 BKN016 OVC023 08/06 A3010 RMK AO2
PAPO 191056Z AUTO 11012KT 10SM BKN009 BKN015 OVC021 08/06 A3009 RMK AO2 RAB33E54 CIG 007V013 SLP190 P0000 T00780061
PAPO 191036Z AUTO 09010KT 8SM -RA BKN009 BKN016 OVC021 08/06 A3009 RMK AO2 RAB33 CIG 007V012 P0000
PAPO 190956Z AUTO 10010KT 10SM SCT007 OVC016 07/06 A3009 RMK AO2 RAB13E38 SLP189 P0000 T00720061
PAPO 190907Z AUTO 16009KT 10SM FEW015 BKN030 OVC036 08/06 A3009 RMK AO2
PAPO 190856Z AUTO 15011KT 10SM SCT015 BKN023 OVC033 08/05 A3009 RMK AO2 SLP190 T00830050 401000083 58000
PAPO 190809Z AUTO 14010KT 10SM SCT017 BKN025 OVC037 08/05 A3010 RMK AO2
PAPO 190756Z AUTO 15011KT 10SM FEW016 OVC037 08/06 A3010 RMK AO2 SLP191 T00830056
PAPO 190712Z AUTO 14009KT 10SM FEW018 BKN035 OVC048 08/06 A3009 RMK AO2
PAPO 190656Z AUTO 16010KT 10SM FEW018 BKN027 OVC055 08/05 A3009 RMK AO2 SLP190 T00830050
PAPO 190646Z AUTO 15008KT 10SM BKN027 OVC055 08/06 A3009 RMK AO2
PAPO 190556Z AUTO 14007KT 10SM SCT024 BKN032 BKN070 08/06 A3009 RMK AO2 SLP190 60000 T00830056 10094 20083 50001
PAPO 190546Z AUTO 14007KT 10SM FEW016 BKN032 OVC070 08/06 A3010 RMK AO2
PAPO 190522Z AUTO 18008KT 10SM FEW013 BKN019 OVC060 08/05 A3010 RMK AO2
PAPO 190456Z AUTO 15008KT 10SM FEW060 09/05 A3010 RMK AO2 RAB04E15 SLP191 P0000 T00890050
PAPO 190356Z AUTO 17010KT 10SM OVC046 09/05 A3009 RMK AO2 SLP190 T00890050
PAPO 190156Z AUTO 19012KT 10SM OVC055 09/06 A3009 RMK AO2 SLP189 T00890061
PAPO 190056Z AUTO 19008KT 10SM OVC055 09/06 A3009 RMK AO2 SLP189 T00940061
PAPO 182356Z AUTO 18011KT 10SM OVC055 09/07 A3009 RMK AO2 SLP188 T00940067 10100 20089 51002
PAPO 182256Z AUTO 18009KT 10SM OVC055 10/07 A3009 RMK AO2 SLP188 T01000072
PAPO 182156Z AUTO 18010KT 10SM BKN055 10/08 A3009 RMK AO2 SLP187 T01000078
PAPO 182056Z AUTO 17009KT 10SM FEW041 BKN055 09/07 A3008 RMK AO2 SLP186 T00940072 51005